Lanzhou Zhongchuan Airport

Airport
ICAO code: 
ZLLL
IATA Code: 
ZGC
Summary
ICAO Region: 
APAC
Territory: 
Location: 
Lanzhou, Gansu
Serving: 
Lanzhou
Elevation: 
6388 ft
Coordinates: 
Aerial View: 
36° 30' 27.336" N, 103° 36' 55.036" E
Metar
Observation
ZLLL 021000Z 33001MPS 7000 NSC M02/M16 Q1026 NOSIG
Station
Lanzhou / Zhongchuan
Date/Time
2021-12-02 10:00:00
Wind direction
330°
Lowest cloud amount
nil significant cloud
Temperature
-2°C
Dew point
-16°C
Humidity
33%
QNH
1026 hPa
Weather condition
n/a

Description

Lanzhou Zhongchuan Airport is an airport serving Lanzhou, the capital of Gansu Province, China. It is located 67 km north of downtown Lanzhou.

Climatology

BWk is a dry arid climate found in middle latitude deserts. ((Koppen climate classification BWk)) Like BWh, precipitation is less than half of potential evapotranspiration. Annual average temperature is below 18°C (64°F). Daily minimum temperatures can frequently go below 0°C (32°F) during the winter season.

Locations: From the Caspian Sea eastward to northern China, Mongolia, and parts of southern South America.

Runways

Designator Length Width Surface Rops
18/36 3600 45 CON Yes/Yes
Airport map: 
Aerial View: 

SKYbrary Partners:

Safety knowledge contributed by: